sensor_id;sensor_type;location;lat;lon;timestamp;P1;durP1;ratioP1;P2;durP2;ratioP2
68072;SDS011;54862;51.502;7.446;2023-05-10T00:01:24;5.38;;;2.40;;
68072;SDS011;54862;51.502;7.446;2023-05-10T00:03:52;6.75;;;2.50;;
68072;SDS011;54862;51.502;7.446;2023-05-10T00:06:18;5.63;;;2.40;;
68072;SDS011;54862;51.502;7.446;2023-05-10T00:08:44;7.68;;;2.80;;
68072;SDS011;54862;51.502;7.446;2023-05-10T00:11:10;6.40;;;2.95;;
68072;SDS011;54862;51.502;7.446;2023-05-10T00:13:36;6.05;;;2.70;;
68072;SDS011;54862;51.502;7.446;2023-05-10T00:16:02;6.93;;;3.08;;
68072;SDS011;54862;51.502;7.446;2023-05-10T00:18:28;8.25;;;3.20;;
68072;SDS011;54862;51.502;7.446;2023-05-10T00:20:54;10.35;;;3.20;;
68072;SDS011;54862;51.502;7.446;2023-05-10T00:23:20;7.28;;;3.22;;
68072;SDS011;54862;51.502;7.446;2023-05-10T00:25:46;7.80;;;3.50;;
68072;SDS011;54862;51.502;7.446;2023-05-10T00:28:12;7.70;;;3.50;;
68072;SDS011;54862;51.502;7.446;2023-05-10T00:30:38;9.27;;;3.92;;
68072;SDS011;54862;51.502;7.446;2023-05-10T00:33:04;9.73;;;4.32;;
68072;SDS011;54862;51.502;7.446;2023-05-10T00:35:33;10.73;;;4.47;;
68072;SDS011;54862;51.502;7.446;2023-05-10T00:38:01;11.25;;;4.80;;
68072;SDS011;54862;51.502;7.446;2023-05-10T00:40:27;10.40;;;4.28;;
68072;SDS011;54862;51.502;7.446;2023-05-10T00:42:53;10.07;;;5.00;;
68072;SDS011;54862;51.502;7.446;2023-05-10T00:45:19;11.55;;;5.45;;
68072;SDS011;54862;51.502;7.446;2023-05-10T00:47:45;11.07;;;4.97;;
68072;SDS011;54862;51.502;7.446;2023-05-10T00:50:11;10.55;;;5.03;;
68072;SDS011;54862;51.502;7.446;2023-05-10T00:52:40;10.90;;;5.18;;
68072;SDS011;54862;51.502;7.446;2023-05-10T00:55:09;10.05;;;4.80;;
68072;SDS011;54862;51.502;7.446;2023-05-10T00:57:37;13.80;;;5.80;;
68072;SDS011;54862;51.502;7.446;2023-05-10T01:00:03;12.38;;;5.55;;
68072;SDS011;54862;51.502;7.446;2023-05-10T01:02:30;15.57;;;6.20;;
68072;SDS011;54862;51.502;7.446;2023-05-10T01:04:56;12.68;;;5.57;;
68072;SDS011;54862;51.502;7.446;2023-05-10T01:07:24;13.52;;;6.70;;
68072;SDS011;54862;51.502;7.446;2023-05-10T01:09:50;13.95;;;6.32;;
68072;SDS011;54862;51.502;7.446;2023-05-10T01:12:18;13.82;;;6.60;;
68072;SDS011;54862;51.502;7.446;2023-05-10T01:14:44;14.60;;;6.28;;
68072;SDS011;54862;51.502;7.446;2023-05-10T01:17:10;18.13;;;7.03;;
68072;SDS011;54862;51.502;7.446;2023-05-10T01:19:37;15.18;;;7.20;;
68072;SDS011;54862;51.502;7.446;2023-05-10T01:29:39;17.63;;;7.40;;
68072;SDS011;54862;51.502;7.446;2023-05-10T01:32:16;15.18;;;7.28;;
68072;SDS011;54862;51.502;7.446;2023-05-10T01:37:13;17.27;;;7.70;;
68072;SDS011;54862;51.502;7.446;2023-05-10T01:42:17;20.38;;;8.48;;
68072;SDS011;54862;51.502;7.446;2023-05-10T01:47:20;20.50;;;8.73;;
68072;SDS011;54862;51.502;7.446;2023-05-10T01:49:52;18.95;;;9.07;;
68072;SDS011;54862;51.502;7.446;2023-05-10T01:52:19;19.80;;;8.90;;
68072;SDS011;54862;51.502;7.446;2023-05-10T01:54:55;19.50;;;8.70;;
68072;SDS011;54862;51.502;7.446;2023-05-10T01:57:21;18.10;;;8.18;;
68072;SDS011;54862;51.502;7.446;2023-05-10T01:59:53;17.13;;;7.53;;
68072;SDS011;54862;51.502;7.446;2023-05-10T02:02:20;16.92;;;8.23;;
68072;SDS011;54862;51.502;7.446;2023-05-10T02:04:47;17.10;;;7.30;;
68072;SDS011;54862;51.502;7.446;2023-05-10T02:07:15;15.82;;;7.25;;
68072;SDS011;54862;51.502;7.446;2023-05-10T02:09:42;15.38;;;6.97;;
68072;SDS011;54862;51.502;7.446;2023-05-10T02:12:12;14.15;;;6.50;;
68072;SDS011;54862;51.502;7.446;2023-05-10T02:14:39;15.02;;;6.88;;
68072;SDS011;54862;51.502;7.446;2023-05-10T02:17:09;16.83;;;6.88;;
68072;SDS011;54862;51.502;7.446;2023-05-10T02:19:38;13.13;;;6.57;;
68072;SDS011;54862;51.502;7.446;2023-05-10T02:22:08;13.15;;;6.05;;
68072;SDS011;54862;51.502;7.446;2023-05-10T02:24:35;12.30;;;5.85;;
68072;SDS011;54862;51.502;7.446;2023-05-10T02:27:04;11.95;;;5.88;;
68072;SDS011;54862;51.502;7.446;2023-05-10T02:29:31;9.85;;;4.32;;
68072;SDS011;54862;51.502;7.446;2023-05-10T02:31:58;9.38;;;4.13;;
68072;SDS011;54862;51.502;7.446;2023-05-10T02:34:25;8.18;;;3.65;;
68072;SDS011;54862;51.502;7.446;2023-05-10T02:36:52;7.43;;;3.20;;
68072;SDS011;54862;51.502;7.446;2023-05-10T02:39:18;7.95;;;2.72;;
68072;SDS011;54862;51.502;7.446;2023-05-10T02:41:45;6.50;;;2.80;;
68072;SDS011;54862;51.502;7.446;2023-05-10T02:44:12;6.78;;;2.70;;
68072;SDS011;54862;51.502;7.446;2023-05-10T02:46:40;6.68;;;2.95;;
68072;SDS011;54862;51.502;7.446;2023-05-10T02:49:06;5.28;;;2.42;;
68072;SDS011;54862;51.502;7.446;2023-05-10T02:51:32;7.85;;;2.95;;
68072;SDS011;54862;51.502;7.446;2023-05-10T02:54:10;6.13;;;2.40;;
68072;SDS011;54862;51.502;7.446;2023-05-10T02:56:39;5.45;;;2.65;;
68072;SDS011;54862;51.502;7.446;2023-05-10T02:59:06;6.70;;;2.67;;
68072;SDS011;54862;51.502;7.446;2023-05-10T03:01:35;7.72;;;2.70;;
68072;SDS011;54862;51.502;7.446;2023-05-10T03:04:00;7.28;;;3.05;;
68072;SDS011;54862;51.502;7.446;2023-05-10T03:06:26;7.43;;;3.17;;
68072;SDS011;54862;51.502;7.446;2023-05-10T03:08:53;8.07;;;3.50;;
68072;SDS011;54862;51.502;7.446;2023-05-10T03:11:36;8.50;;;3.25;;
68072;SDS011;54862;51.502;7.446;2023-05-10T03:16:30;7.38;;;3.47;;
68072;SDS011;54862;51.502;7.446;2023-05-10T03:19:18;8.13;;;3.45;;
68072;SDS011;54862;51.502;7.446;2023-05-10T03:21:53;7.60;;;3.08;;
68072;SDS011;54862;51.502;7.446;2023-05-10T03:24:21;9.50;;;3.40;;
68072;SDS011;54862;51.502;7.446;2023-05-10T03:26:48;7.57;;;3.20;;
68072;SDS011;54862;51.502;7.446;2023-05-10T03:29:15;8.90;;;3.40;;
68072;SDS011;54862;51.502;7.446;2023-05-10T03:31:41;7.10;;;3.00;;
68072;SDS011;54862;51.502;7.446;2023-05-10T03:34:10;9.15;;;3.65;;
68072;SDS011;54862;51.502;7.446;2023-05-10T03:36:38;7.68;;;3.22;;
68072;SDS011;54862;51.502;7.446;2023-05-10T03:39:04;9.85;;;4.10;;
68072;SDS011;54862;51.502;7.446;2023-05-10T03:41:32;10.07;;;3.95;;
68072;SDS011;54862;51.502;7.446;2023-05-10T03:43:58;13.90;;;5.18;;
68072;SDS011;54862;51.502;7.446;2023-05-10T03:46:27;12.90;;;5.00;;
68072;SDS011;54862;51.502;7.446;2023-05-10T03:48:53;14.95;;;7.32;;
68072;SDS011;54862;51.502;7.446;2023-05-10T03:51:21;15.85;;;6.70;;
68072;SDS011;54862;51.502;7.446;2023-05-10T03:53:47;18.02;;;8.75;;
68072;SDS011;54862;51.502;7.446;2023-05-10T03:56:16;21.58;;;10.07;;
68072;SDS011;54862;51.502;7.446;2023-05-10T03:58:41;23.75;;;10.50;;
68072;SDS011;54862;51.502;7.446;2023-05-10T04:01:07;19.63;;;10.20;;
68072;SDS011;54862;51.502;7.446;2023-05-10T04:03:33;25.33;;;11.48;;
68072;SDS011;54862;51.502;7.446;2023-05-10T04:06:01;23.48;;;10.68;;
68072;SDS011;54862;51.502;7.446;2023-05-10T04:08:27;26.15;;;11.98;;
68072;SDS011;54862;51.502;7.446;2023-05-10T04:10:53;27.58;;;11.55;;
68072;SDS011;54862;51.502;7.446;2023-05-10T04:13:20;24.23;;;11.65;;
68072;SDS011;54862;51.502;7.446;2023-05-10T04:15:46;23.77;;;10.85;;
68072;SDS011;54862;51.502;7.446;2023-05-10T04:18:12;27.70;;;11.35;;
68072;SDS011;54862;51.502;7.446;2023-05-10T04:20:38;24.50;;;10.35;;
68072;SDS011;54862;51.502;7.446;2023-05-10T04:23:04;25.17;;;10.55;;
68072;SDS011;54862;51.502;7.446;2023-05-10T04:25:30;26.85;;;10.90;;
68072;SDS011;54862;51.502;7.446;2023-05-10T04:27:56;25.70;;;11.45;;
68072;SDS011;54862;51.502;7.446;2023-05-10T04:30:22;26.23;;;10.75;;
68072;SDS011;54862;51.502;7.446;2023-05-10T04:32:48;27.17;;;11.35;;
68072;SDS011;54862;51.502;7.446;2023-05-10T04:35:17;22.45;;;11.07;;
68072;SDS011;54862;51.502;7.446;2023-05-10T04:37:43;22.83;;;9.90;;
68072;SDS011;54862;51.502;7.446;2023-05-10T04:40:09;25.50;;;10.25;;
68072;SDS011;54862;51.502;7.446;2023-05-10T04:42:35;23.45;;;9.25;;
68072;SDS011;54862;51.502;7.446;2023-05-10T04:45:01;19.83;;;9.57;;
68072;SDS011;54862;51.502;7.446;2023-05-10T04:47:27;19.88;;;9.38;;
68072;SDS011;54862;51.502;7.446;2023-05-10T04:49:53;24.83;;;10.20;;
68072;SDS011;54862;51.502;7.446;2023-05-10T04:52:19;27.50;;;10.00;;
68072;SDS011;54862;51.502;7.446;2023-05-10T04:54:45;27.55;;;11.27;;
68072;SDS011;54862;51.502;7.446;2023-05-10T04:57:11;27.20;;;11.23;;
68072;SDS011;54862;51.502;7.446;2023-05-10T04:59:39;27.63;;;12.25;;
68072;SDS011;54862;51.502;7.446;2023-05-10T05:02:05;30.90;;;12.38;;
68072;SDS011;54862;51.502;7.446;2023-05-10T05:04:31;30.33;;;13.95;;
68072;SDS011;54862;51.502;7.446;2023-05-10T05:06:57;33.22;;;13.13;;
68072;SDS011;54862;51.502;7.446;2023-05-10T05:09:26;35.60;;;14.98;;
68072;SDS011;54862;51.502;7.446;2023-05-10T05:11:52;33.88;;;14.90;;
68072;SDS011;54862;51.502;7.446;2023-05-10T05:14:20;40.05;;;16.10;;
68072;SDS011;54862;51.502;7.446;2023-05-10T05:16:46;42.42;;;16.48;;
68072;SDS011;54862;51.502;7.446;2023-05-10T05:19:12;38.75;;;16.27;;
68072;SDS011;54862;51.502;7.446;2023-05-10T05:21:38;37.78;;;16.33;;
68072;SDS011;54862;51.502;7.446;2023-05-10T05:24:05;38.20;;;17.52;;
68072;SDS011;54862;51.502;7.446;2023-05-10T05:26:31;45.08;;;17.70;;
68072;SDS011;54862;51.502;7.446;2023-05-10T05:28:58;43.22;;;16.88;;
68072;SDS011;54862;51.502;7.446;2023-05-10T05:31:24;48.33;;;19.15;;
68072;SDS011;54862;51.502;7.446;2023-05-10T05:33:50;47.35;;;18.35;;
68072;SDS011;54862;51.502;7.446;2023-05-10T05:36:16;45.80;;;18.67;;
68072;SDS011;54862;51.502;7.446;2023-05-10T05:38:42;47.30;;;18.75;;
68072;SDS011;54862;51.502;7.446;2023-05-10T05:41:08;48.70;;;18.23;;
68072;SDS011;54862;51.502;7.446;2023-05-10T05:43:34;52.00;;;19.48;;
68072;SDS011;54862;51.502;7.446;2023-05-10T05:46:05;45.95;;;18.80;;
68072;SDS011;54862;51.502;7.446;2023-05-10T05:48:33;49.40;;;18.90;;
68072;SDS011;54862;51.502;7.446;2023-05-10T05:50:59;49.88;;;19.63;;
68072;SDS011;54862;51.502;7.446;2023-05-10T05:53:25;49.65;;;18.42;;
68072;SDS011;54862;51.502;7.446;2023-05-10T05:55:55;51.67;;;20.80;;
68072;SDS011;54862;51.502;7.446;2023-05-10T05:58:22;49.75;;;19.20;;
68072;SDS011;54862;51.502;7.446;2023-05-10T06:00:50;51.20;;;18.65;;
68072;SDS011;54862;51.502;7.446;2023-05-10T06:03:17;50.47;;;20.15;;
68072;SDS011;54862;51.502;7.446;2023-05-10T06:05:43;50.47;;;19.17;;
68072;SDS011;54862;51.502;7.446;2023-05-10T06:08:09;53.33;;;18.95;;
68072;SDS011;54862;51.502;7.446;2023-05-10T06:10:35;54.55;;;21.00;;
68072;SDS011;54862;51.502;7.446;2023-05-10T06:13:01;51.70;;;18.83;;
68072;SDS011;54862;51.502;7.446;2023-05-10T06:15:27;52.90;;;20.52;;
68072;SDS011;54862;51.502;7.446;2023-05-10T06:17:53;57.83;;;20.52;;
68072;SDS011;54862;51.502;7.446;2023-05-10T06:20:19;52.88;;;21.00;;
68072;SDS011;54862;51.502;7.446;2023-05-10T06:22:48;48.08;;;19.58;;
68072;SDS011;54862;51.502;7.446;2023-05-10T06:25:14;50.65;;;20.67;;
68072;SDS011;54862;51.502;7.446;2023-05-10T06:27:42;51.40;;;21.10;;
68072;SDS011;54862;51.502;7.446;2023-05-10T06:30:08;52.08;;;20.95;;
68072;SDS011;54862;51.502;7.446;2023-05-10T06:32:35;57.05;;;21.35;;
68072;SDS011;54862;51.502;7.446;2023-05-10T06:35:01;55.55;;;21.50;;
68072;SDS011;54862;51.502;7.446;2023-05-10T06:37:27;58.08;;;23.60;;
68072;SDS011;54862;51.502;7.446;2023-05-10T06:39:53;55.50;;;21.58;;
68072;SDS011;54862;51.502;7.446;2023-05-10T06:42:19;58.05;;;21.83;;
68072;SDS011;54862;51.502;7.446;2023-05-10T06:44:45;57.58;;;22.52;;
68072;SDS011;54862;51.502;7.446;2023-05-10T06:47:11;57.97;;;22.58;;
68072;SDS011;54862;51.502;7.446;2023-05-10T06:49:39;58.95;;;22.25;;
68072;SDS011;54862;51.502;7.446;2023-05-10T06:52:05;59.17;;;23.02;;
68072;SDS011;54862;51.502;7.446;2023-05-10T06:54:34;57.15;;;22.45;;
68072;SDS011;54862;51.502;7.446;2023-05-10T06:57:00;56.55;;;23.60;;
68072;SDS011;54862;51.502;7.446;2023-05-10T06:59:28;50.90;;;21.45;;
68072;SDS011;54862;51.502;7.446;2023-05-10T07:01:54;51.92;;;21.60;;
68072;SDS011;54862;51.502;7.446;2023-05-10T07:04:20;53.67;;;21.45;;
68072;SDS011;54862;51.502;7.446;2023-05-10T07:06:46;52.20;;;22.38;;
68072;SDS011;54862;51.502;7.446;2023-05-10T07:09:12;48.28;;;20.98;;
68072;SDS011;54862;51.502;7.446;2023-05-10T07:11:38;50.65;;;21.23;;
68072;SDS011;54862;51.502;7.446;2023-05-10T07:14:04;48.30;;;20.33;;
68072;SDS011;54862;51.502;7.446;2023-05-10T07:16:30;54.38;;;23.67;;
68072;SDS011;54862;51.502;7.446;2023-05-10T07:18:59;49.10;;;22.25;;
68072;SDS011;54862;51.502;7.446;2023-05-10T07:21:25;50.25;;;20.30;;
68072;SDS011;54862;51.502;7.446;2023-05-10T07:23:53;49.08;;;21.48;;
68072;SDS011;54862;51.502;7.446;2023-05-10T07:26:19;48.47;;;20.90;;
68072;SDS011;54862;51.502;7.446;2023-05-10T07:28:47;46.35;;;21.10;;
68072;SDS011;54862;51.502;7.446;2023-05-10T07:31:13;45.78;;;21.02;;
68072;SDS011;54862;51.502;7.446;2023-05-10T07:33:39;43.65;;;20.25;;
68072;SDS011;54862;51.502;7.446;2023-05-10T07:36:10;39.63;;;19.88;;
68072;SDS011;54862;51.502;7.446;2023-05-10T07:38:36;41.58;;;20.25;;
68072;SDS011;54862;51.502;7.446;2023-05-10T07:41:02;41.17;;;20.73;;
68072;SDS011;54862;51.502;7.446;2023-05-10T07:43:28;47.28;;;20.52;;
68072;SDS011;54862;51.502;7.446;2023-05-10T07:45:54;43.75;;;21.63;;
68072;SDS011;54862;51.502;7.446;2023-05-10T07:48:22;42.22;;;21.67;;
68072;SDS011;54862;51.502;7.446;2023-05-10T07:50:48;42.08;;;20.08;;
68072;SDS011;54862;51.502;7.446;2023-05-10T07:53:14;42.95;;;20.10;;
68072;SDS011;54862;51.502;7.446;2023-05-10T07:55:40;44.42;;;20.17;;
68072;SDS011;54862;51.502;7.446;2023-05-10T07:58:06;38.95;;;19.33;;
68072;SDS011;54862;51.502;7.446;2023-05-10T08:00:32;41.53;;;19.08;;
68072;SDS011;54862;51.502;7.446;2023-05-10T08:02:58;42.67;;;20.85;;
68072;SDS011;54862;51.502;7.446;2023-05-10T08:05:24;38.80;;;19.23;;
68072;SDS011;54862;51.502;7.446;2023-05-10T08:07:50;40.55;;;19.42;;
68072;SDS011;54862;51.502;7.446;2023-05-10T08:10:16;37.88;;;19.20;;
68072;SDS011;54862;51.502;7.446;2023-05-10T08:12:42;39.65;;;18.13;;
68072;SDS011;54862;51.502;7.446;2023-05-10T08:15:10;40.17;;;18.38;;
68072;SDS011;54862;51.502;7.446;2023-05-10T08:17:36;35.05;;;17.10;;
68072;SDS011;54862;51.502;7.446;2023-05-10T08:20:02;39.90;;;18.50;;
68072;SDS011;54862;51.502;7.446;2023-05-10T08:22:32;37.33;;;18.25;;
68072;SDS011;54862;51.502;7.446;2023-05-10T08:24:58;46.78;;;18.45;;
68072;SDS011;54862;51.502;7.446;2023-05-10T08:27:24;39.20;;;17.30;;
68072;SDS011;54862;51.502;7.446;2023-05-10T08:29:50;42.30;;;18.58;;
68072;SDS011;54862;51.502;7.446;2023-05-10T08:32:16;40.80;;;17.33;;
68072;SDS011;54862;51.502;7.446;2023-05-10T08:34:42;37.38;;;18.67;;
68072;SDS011;54862;51.502;7.446;2023-05-10T08:37:08;39.67;;;19.00;;
68072;SDS011;54862;51.502;7.446;2023-05-10T08:39:37;39.92;;;20.02;;
68072;SDS011;54862;51.502;7.446;2023-05-10T08:42:04;37.95;;;18.20;;
68072;SDS011;54862;51.502;7.446;2023-05-10T08:44:31;43.00;;;19.10;;
68072;SDS011;54862;51.502;7.446;2023-05-10T08:46:58;40.17;;;18.40;;
68072;SDS011;54862;51.502;7.446;2023-05-10T08:49:25;42.55;;;18.95;;
68072;SDS011;54862;51.502;7.446;2023-05-10T08:51:54;36.83;;;19.08;;
68072;SDS011;54862;51.502;7.446;2023-05-10T08:54:21;41.70;;;20.70;;
68072;SDS011;54862;51.502;7.446;2023-05-10T08:56:47;33.80;;;16.55;;
68072;SDS011;54862;51.502;7.446;2023-05-10T08:59:13;33.08;;;15.35;;
68072;SDS011;54862;51.502;7.446;2023-05-10T09:01:40;28.70;;;13.60;;
68072;SDS011;54862;51.502;7.446;2023-05-10T09:04:06;32.83;;;14.13;;
68072;SDS011;54862;51.502;7.446;2023-05-10T09:06:32;30.92;;;14.88;;
68072;SDS011;54862;51.502;7.446;2023-05-10T09:08:59;31.67;;;14.00;;
68072;SDS011;54862;51.502;7.446;2023-05-10T09:11:28;32.90;;;14.88;;
68072;SDS011;54862;51.502;7.446;2023-05-10T09:13:57;36.30;;;16.55;;
68072;SDS011;54862;51.502;7.446;2023-05-10T09:16:23;35.83;;;14.82;;
68072;SDS011;54862;51.502;7.446;2023-05-10T09:18:49;34.60;;;15.63;;
68072;SDS011;54862;51.502;7.446;2023-05-10T09:21:15;34.70;;;14.57;;
68072;SDS011;54862;51.502;7.446;2023-05-10T09:23:47;32.13;;;14.90;;
68072;SDS011;54862;51.502;7.446;2023-05-10T09:26:21;33.55;;;14.77;;
68072;SDS011;54862;51.502;7.446;2023-05-10T09:28:51;31.38;;;15.98;;
68072;SDS011;54862;51.502;7.446;2023-05-10T09:31:17;30.83;;;14.88;;
68072;SDS011;54862;51.502;7.446;2023-05-10T09:33:46;32.97;;;15.63;;
68072;SDS011;54862;51.502;7.446;2023-05-10T09:36:12;32.00;;;15.45;;
68072;SDS011;54862;51.502;7.446;2023-05-10T09:38:57;29.42;;;14.15;;
68072;SDS011;54862;51.502;7.446;2023-05-10T09:41:23;33.35;;;14.95;;
68072;SDS011;54862;51.502;7.446;2023-05-10T09:43:55;28.95;;;14.48;;
68072;SDS011;54862;51.502;7.446;2023-05-10T09:46:21;30.02;;;14.90;;
68072;SDS011;54862;51.502;7.446;2023-05-10T09:48:47;26.60;;;12.93;;
68072;SDS011;54862;51.502;7.446;2023-05-10T09:51:23;26.23;;;12.50;;
68072;SDS011;54862;51.502;7.446;2023-05-10T09:56:35;21.65;;;11.02;;
68072;SDS011;54862;51.502;7.446;2023-05-10T09:59:02;22.90;;;11.20;;
68072;SDS011;54862;51.502;7.446;2023-05-10T10:01:31;19.20;;;8.65;;
68072;SDS011;54862;51.502;7.446;2023-05-10T10:03:57;16.58;;;8.05;;
68072;SDS011;54862;51.502;7.446;2023-05-10T10:06:25;16.02;;;8.10;;
68072;SDS011;54862;51.502;7.446;2023-05-10T10:08:54;16.13;;;8.07;;
68072;SDS011;54862;51.502;7.446;2023-05-10T10:11:21;13.63;;;7.07;;
68072;SDS011;54862;51.502;7.446;2023-05-10T10:13:47;16.98;;;8.38;;
68072;SDS011;54862;51.502;7.446;2023-05-10T10:16:13;15.75;;;7.90;;
68072;SDS011;54862;51.502;7.446;2023-05-10T10:18:39;15.75;;;7.10;;
68072;SDS011;54862;51.502;7.446;2023-05-10T10:21:06;14.27;;;7.40;;
68072;SDS011;54862;51.502;7.446;2023-05-10T10:23:34;13.90;;;6.97;;
68072;SDS011;54862;51.502;7.446;2023-05-10T10:26:01;15.45;;;8.48;;
68072;SDS011;54862;51.502;7.446;2023-05-10T10:31:00;15.52;;;7.20;;
68072;SDS011;54862;51.502;7.446;2023-05-10T10:33:33;15.65;;;7.47;;
68072;SDS011;54862;51.502;7.446;2023-05-10T10:36:02;15.25;;;7.63;;
68072;SDS011;54862;51.502;7.446;2023-05-10T10:38:54;15.98;;;7.32;;
68072;SDS011;54862;51.502;7.446;2023-05-10T10:41:31;16.08;;;7.47;;
68072;SDS011;54862;51.502;7.446;2023-05-10T10:49:24;16.15;;;7.18;;
68072;SDS011;54862;51.502;7.446;2023-05-10T10:54:35;13.93;;;6.32;;
68072;SDS011;54862;51.502;7.446;2023-05-10T10:57:11;14.88;;;6.65;;
68072;SDS011;54862;51.502;7.446;2023-05-10T10:59:41;14.90;;;6.63;;
68072;SDS011;54862;51.502;7.446;2023-05-10T11:04:55;24.08;;;9.85;;
68072;SDS011;54862;51.502;7.446;2023-05-10T11:07:21;24.90;;;10.77;;
68072;SDS011;54862;51.502;7.446;2023-05-10T11:09:48;21.83;;;10.90;;
68072;SDS011;54862;51.502;7.446;2023-05-10T11:12:14;23.58;;;10.88;;
68072;SDS011;54862;51.502;7.446;2023-05-10T11:14:40;24.67;;;11.52;;
68072;SDS011;54862;51.502;7.446;2023-05-10T11:17:24;21.15;;;10.30;;
68072;SDS011;54862;51.502;7.446;2023-05-10T11:20:09;20.27;;;9.98;;
68072;SDS011;54862;51.502;7.446;2023-05-10T11:22:50;20.20;;;9.88;;
68072;SDS011;54862;51.502;7.446;2023-05-10T11:25:17;18.90;;;8.30;;
68072;SDS011;54862;51.502;7.446;2023-05-10T11:27:43;19.50;;;8.90;;
68072;SDS011;54862;51.502;7.446;2023-05-10T11:30:10;19.83;;;8.43;;
68072;SDS011;54862;51.502;7.446;2023-05-10T11:32:39;16.70;;;8.38;;
68072;SDS011;54862;51.502;7.446;2023-05-10T11:35:09;17.02;;;9.32;;
68072;SDS011;54862;51.502;7.446;2023-05-10T11:37:40;20.00;;;11.32;;
68072;SDS011;54862;51.502;7.446;2023-05-10T11:40:08;21.20;;;11.30;;
68072;SDS011;54862;51.502;7.446;2023-05-10T11:42:38;19.25;;;11.18;;
68072;SDS011;54862;51.502;7.446;2023-05-10T11:45:06;23.50;;;13.73;;
68072;SDS011;54862;51.502;7.446;2023-05-10T11:47:35;20.23;;;11.93;;
68072;SDS011;54862;51.502;7.446;2023-05-10T11:50:02;22.23;;;12.68;;
68072;SDS011;54862;51.502;7.446;2023-05-10T11:52:28;19.42;;;11.20;;
68072;SDS011;54862;51.502;7.446;2023-05-10T11:54:54;22.73;;;11.98;;
68072;SDS011;54862;51.502;7.446;2023-05-10T11:57:20;19.98;;;11.82;;
68072;SDS011;54862;51.502;7.446;2023-05-10T11:59:54;20.63;;;11.38;;
68072;SDS011;54862;51.502;7.446;2023-05-10T12:02:20;20.83;;;10.00;;
68072;SDS011;54862;51.502;7.446;2023-05-10T12:04:46;22.63;;;9.90;;
68072;SDS011;54862;51.502;7.446;2023-05-10T12:07:12;18.70;;;9.63;;
68072;SDS011;54862;51.502;7.446;2023-05-10T12:09:48;19.38;;;9.95;;
68072;SDS011;54862;51.502;7.446;2023-05-10T12:12:27;20.65;;;9.35;;
68072;SDS011;54862;51.502;7.446;2023-05-10T12:15:01;21.40;;;10.32;;
68072;SDS011;54862;51.502;7.446;2023-05-10T12:17:29;19.25;;;10.68;;
68072;SDS011;54862;51.502;7.446;2023-05-10T12:19:58;21.05;;;9.63;;
68072;SDS011;54862;51.502;7.446;2023-05-10T12:22:27;18.67;;;9.43;;
68072;SDS011;54862;51.502;7.446;2023-05-10T12:24:53;17.52;;;8.82;;
68072;SDS011;54862;51.502;7.446;2023-05-10T12:27:19;17.60;;;8.85;;
68072;SDS011;54862;51.502;7.446;2023-05-10T12:29:45;15.38;;;8.10;;
68072;SDS011;54862;51.502;7.446;2023-05-10T12:32:11;17.38;;;9.10;;
68072;SDS011;54862;51.502;7.446;2023-05-10T12:34:37;16.35;;;8.32;;
68072;SDS011;54862;51.502;7.446;2023-05-10T12:37:03;16.80;;;8.55;;
68072;SDS011;54862;51.502;7.446;2023-05-10T12:39:39;15.65;;;7.50;;
68072;SDS011;54862;51.502;7.446;2023-05-10T12:42:06;15.75;;;7.97;;
68072;SDS011;54862;51.502;7.446;2023-05-10T12:44:32;19.50;;;8.40;;
68072;SDS011;54862;51.502;7.446;2023-05-10T12:46:58;15.98;;;7.45;;
68072;SDS011;54862;51.502;7.446;2023-05-10T12:49:24;13.77;;;7.60;;
68072;SDS011;54862;51.502;7.446;2023-05-10T12:51:50;15.55;;;7.90;;
68072;SDS011;54862;51.502;7.446;2023-05-10T12:54:16;14.48;;;7.65;;
68072;SDS011;54862;51.502;7.446;2023-05-10T12:56:44;15.68;;;7.30;;
68072;SDS011;54862;51.502;7.446;2023-05-10T12:59:10;15.30;;;7.18;;
68072;SDS011;54862;51.502;7.446;2023-05-10T13:01:36;15.70;;;7.15;;
68072;SDS011;54862;51.502;7.446;2023-05-10T13:04:02;15.50;;;8.02;;
68072;SDS011;54862;51.502;7.446;2023-05-10T13:06:28;15.32;;;8.57;;
68072;SDS011;54862;51.502;7.446;2023-05-10T13:08:54;14.45;;;7.78;;
68072;SDS011;54862;51.502;7.446;2023-05-10T13:11:22;14.57;;;7.22;;
68072;SDS011;54862;51.502;7.446;2023-05-10T13:13:48;14.68;;;6.82;;
68072;SDS011;54862;51.502;7.446;2023-05-10T13:16:14;14.63;;;7.05;;
68072;SDS011;54862;51.502;7.446;2023-05-10T13:18:40;14.57;;;7.78;;
68072;SDS011;54862;51.502;7.446;2023-05-10T13:21:06;16.45;;;8.20;;
68072;SDS011;54862;51.502;7.446;2023-05-10T13:23:33;15.00;;;7.95;;
68072;SDS011;54862;51.502;7.446;2023-05-10T13:26:02;15.68;;;7.28;;
68072;SDS011;54862;51.502;7.446;2023-05-10T13:28:28;15.55;;;8.25;;
68072;SDS011;54862;51.502;7.446;2023-05-10T13:30:54;16.13;;;8.43;;
68072;SDS011;54862;51.502;7.446;2023-05-10T13:33:20;14.73;;;8.35;;
68072;SDS011;54862;51.502;7.446;2023-05-10T13:35:46;15.45;;;7.85;;
68072;SDS011;54862;51.502;7.446;2023-05-10T13:38:12;14.85;;;7.72;;
68072;SDS011;54862;51.502;7.446;2023-05-10T13:40:43;13.85;;;6.68;;
68072;SDS011;54862;51.502;7.446;2023-05-10T13:43:09;15.02;;;8.52;;
68072;SDS011;54862;51.502;7.446;2023-05-10T13:45:35;15.80;;;8.35;;
68072;SDS011;54862;51.502;7.446;2023-05-10T13:48:01;15.65;;;8.10;;
68072;SDS011;54862;51.502;7.446;2023-05-10T13:50:27;16.50;;;7.85;;
68072;SDS011;54862;51.502;7.446;2023-05-10T13:52:55;14.57;;;8.13;;
68072;SDS011;54862;51.502;7.446;2023-05-10T13:55:21;14.30;;;7.63;;
68072;SDS011;54862;51.502;7.446;2023-05-10T13:57:47;14.70;;;7.53;;
68072;SDS011;54862;51.502;7.446;2023-05-10T14:00:15;12.15;;;8.00;;
68072;SDS011;54862;51.502;7.446;2023-05-10T14:02:41;15.20;;;8.77;;
68072;SDS011;54862;51.502;7.446;2023-05-10T14:05:08;14.27;;;8.23;;
68072;SDS011;54862;51.502;7.446;2023-05-10T14:07:34;12.07;;;7.35;;
68072;SDS011;54862;51.502;7.446;2023-05-10T14:10:00;12.07;;;6.13;;
68072;SDS011;54862;51.502;7.446;2023-05-10T14:12:26;11.35;;;5.70;;
68072;SDS011;54862;51.502;7.446;2023-05-10T14:14:54;11.10;;;4.75;;
68072;SDS011;54862;51.502;7.446;2023-05-10T14:17:20;10.18;;;5.22;;
68072;SDS011;54862;51.502;7.446;2023-05-10T14:19:47;8.98;;;4.70;;
68072;SDS011;54862;51.502;7.446;2023-05-10T14:22:13;8.70;;;4.25;;
68072;SDS011;54862;51.502;7.446;2023-05-10T14:24:39;10.02;;;5.10;;
68072;SDS011;54862;51.502;7.446;2023-05-10T14:27:05;10.05;;;4.63;;
68072;SDS011;54862;51.502;7.446;2023-05-10T14:29:31;8.63;;;4.30;;
68072;SDS011;54862;51.502;7.446;2023-05-10T14:31:59;10.00;;;4.50;;
68072;SDS011;54862;51.502;7.446;2023-05-10T14:34:25;8.27;;;4.35;;
68072;SDS011;54862;51.502;7.446;2023-05-10T14:36:53;8.23;;;4.30;;
68072;SDS011;54862;51.502;7.446;2023-05-10T14:39:20;8.45;;;4.75;;
68072;SDS011;54862;51.502;7.446;2023-05-10T14:41:46;8.00;;;4.35;;
68072;SDS011;54862;51.502;7.446;2023-05-10T14:44:16;9.18;;;4.28;;
68072;SDS011;54862;51.502;7.446;2023-05-10T14:46:42;9.27;;;4.30;;
68072;SDS011;54862;51.502;7.446;2023-05-10T14:49:08;7.80;;;3.80;;
68072;SDS011;54862;51.502;7.446;2023-05-10T14:51:34;8.02;;;4.03;;
68072;SDS011;54862;51.502;7.446;2023-05-10T14:54:01;10.50;;;3.95;;
68072;SDS011;54862;51.502;7.446;2023-05-10T14:56:27;6.97;;;3.90;;
68072;SDS011;54862;51.502;7.446;2023-05-10T14:58:55;9.32;;;4.82;;
68072;SDS011;54862;51.502;7.446;2023-05-10T15:01:22;8.77;;;3.85;;
68072;SDS011;54862;51.502;7.446;2023-05-10T15:03:48;7.00;;;3.17;;
68072;SDS011;54862;51.502;7.446;2023-05-10T15:06:14;7.72;;;3.60;;